createdAt,value
2018-01-01T00:00:20.199Z,0
2018-01-01T00:01:19.666Z,0
2018-01-01T00:02:20.160Z,0
2018-01-01T00:03:19.875Z,0
2018-01-01T00:04:20.386Z,0
2018-01-01T00:05:20.102Z,0
2018-01-01T00:06:20.079Z,0
2018-01-01T00:07:19.809Z,0
2018-01-01T00:08:19.515Z,0
2018-01-01T00:09:20.043Z,0
2018-01-01T00:10:20.016Z,0
2018-01-01T00:11:19.735Z,0
2018-01-01T00:12:19.709Z,0
2018-01-01T00:13:19.160Z,0
2018-01-01T00:14:19.667Z,0
2018-01-01T00:15:19.920Z,0
2018-01-01T00:16:19.632Z,0
2018-01-01T00:17:19.889Z,0
2018-01-01T00:18:19.594Z,0
2018-01-01T00:19:19.580Z,0
2018-01-01T00:20:19.830Z,0
2018-01-01T00:21:19.478Z,0
2018-01-01T00:22:19.804Z,0
2018-01-01T00:23:18.975Z,0
2018-01-01T00:24:19.743Z,0
2018-01-01T00:25:19.463Z,0
2018-01-01T00:26:19.700Z,0
2018-01-01T00:27:19.957Z,0
2018-01-01T00:28:19.412Z,0
2018-01-01T00:29:19.676Z,0
2018-01-01T00:30:18.841Z,0
2018-01-01T00:31:19.623Z,0
2018-01-01T00:32:19.337Z,0
2018-01-01T00:33:19.362Z,0
2018-01-01T00:34:19.231Z,0
2018-01-01T00:35:19.540Z,0
2018-01-01T00:36:19.783Z,0
2018-01-01T00:37:18.970Z,0
2018-01-01T00:38:18.956Z,0
2018-01-01T00:39:19.463Z,0
2018-01-01T00:40:19.448Z,0
2018-01-01T00:41:19.425Z,0
2018-01-01T00:42:19.409Z,0
2018-01-01T00:43:19.392Z,0
2018-01-01T00:44:19.105Z,0
2018-01-01T00:45:18.824Z,0
2018-01-01T00:46:19.333Z,0
2018-01-01T00:47:19.309Z,0
2018-01-01T00:48:19.029Z,0
2018-01-01T00:49:19.018Z,0
2018-01-01T00:50:19.261Z,0
2018-01-01T00:51:18.983Z,0
2018-01-01T00:52:19.215Z,0
2018-01-01T00:53:19.210Z,0
2018-01-01T00:54:19.187Z,0
2018-01-01T00:55:18.896Z,0
2018-01-01T00:56:18.873Z,0
2018-01-01T00:57:19.394Z,0
2018-01-01T00:58:19.371Z,0
2018-01-01T00:59:19.092Z,0
2018-01-01T01:00:18.538Z,0
2018-01-01T01:01:18.525Z,0
2018-01-01T01:02:19.301Z,0
2018-01-01T01:03:18.748Z,0
2018-01-01T01:04:18.989Z,0
2018-01-01T01:05:18.976Z,0
2018-01-01T01:06:18.687Z,0
2018-01-01T01:07:18.937Z,0
2018-01-01T01:08:18.391Z,0
2018-01-01T01:09:18.899Z,0
2018-01-01T01:10:18.886Z,0
2018-01-01T01:11:19.144Z,0
2018-01-01T01:12:18.591Z,0
2018-01-01T01:13:18.825Z,0
2018-01-01T01:14:18.799Z,0
2018-01-01T01:15:18.520Z,0
2018-01-01T01:16:18.236Z,0
2018-01-01T01:17:18.481Z,0
2018-01-01T01:18:18.730Z,0
2018-01-01T01:19:17.911Z,0
2018-01-01T01:20:18.683Z,0
2018-01-01T01:21:18.672Z,0
2018-01-01T01:22:18.383Z,0
2018-01-01T01:23:18.635Z,0
2018-01-01T01:24:18.364Z,0
2018-01-01T01:25:18.851Z,0
2018-01-01T01:26:18.840Z,0
2018-01-01T01:27:18.290Z,0
2018-01-01T01:28:18.310Z,0
2018-01-01T01:29:18.244Z,0
2018-01-01T01:30:18.027Z,0
2018-01-01T01:31:17.960Z,0
2018-01-01T01:32:18.458Z,0
2018-01-01T01:33:18.436Z,0
2018-01-01T01:34:18.152Z,0
2018-01-01T01:35:18.402Z,0
2018-01-01T01:36:18.373Z,0
2018-01-01T01:37:18.091Z,0
2018-01-01T01:38:18.334Z,0
2018-01-01T01:39:17.800Z,0
2018-01-01T01:40:18.291Z,0
2018-01-01T01:41:17.761Z,0
2018-01-01T01:42:18.009Z,0
2018-01-01T01:43:17.725Z,0
2018-01-01T01:44:17.964Z,0
2018-01-01T01:45:18.573Z,0
2018-01-01T01:46:18.194Z,0
2018-01-01T01:47:17.636Z,0
2018-01-01T01:48:17.884Z,0
2018-01-01T01:49:18.401Z,0
2018-01-01T01:50:17.846Z,0
2018-01-01T01:51:18.093Z,0
2018-01-01T01:52:18.337Z,0
2018-01-01T01:53:18.376Z,0
2018-01-01T01:54:17.776Z,0
2018-01-01T01:55:18.022Z,0
2018-01-01T01:56:17.730Z,0
2018-01-01T01:57:17.704Z,0
2018-01-01T01:58:17.948Z,0
2018-01-01T01:59:17.409Z,0
2018-01-01T02:00:17.387Z,0
2018-01-01T02:01:18.157Z,0
2018-01-01T02:02:17.348Z,0
2018-01-01T02:03:18.126Z,0
2018-01-01T02:04:17.565Z,0
2018-01-01T02:05:17.551Z,0
2018-01-01T02:06:17.270Z,0
2018-01-01T02:07:17.248Z,0
2018-01-01T02:08:17.783Z,0
2018-01-01T02:09:17.745Z,0
2018-01-01T02:10:17.187Z,0
2018-01-01T02:11:17.487Z,0
2018-01-01T02:12:17.421Z,0
2018-01-01T02:13:17.143Z,0
2018-01-01T02:14:17.384Z,0
2018-01-01T02:15:17.625Z,0
2018-01-01T02:16:17.084Z,0
2018-01-01T02:17:17.581Z,0
2018-01-01T02:18:17.565Z,0
2018-01-01T02:19:17.292Z,0
2018-01-01T02:20:17.540Z,0
2018-01-01T02:21:17.445Z,0
2018-01-01T02:22:17.233Z,0
2018-01-01T02:23:17.205Z,0
2018-01-01T02:24:17.452Z,0
2018-01-01T02:25:17.171Z,0
2018-01-01T02:26:17.725Z,0
2018-01-01T02:27:17.135Z,0
2018-01-01T02:28:17.112Z,0
2018-01-01T02:29:17.098Z,0
2018-01-01T02:30:17.080Z,0
2018-01-01T02:31:16.792Z,0
2018-01-01T02:32:17.041Z,0
2018-01-01T02:33:17.025Z,0
2018-01-01T02:34:16.466Z,0
2018-01-01T02:35:16.990Z,0
2018-01-01T02:36:17.218Z,0
2018-01-01T02:37:16.988Z,0
2018-01-01T02:38:17.188Z,0
2018-01-01T02:39:16.911Z,0
2018-01-01T02:40:17.144Z,0
2018-01-01T02:41:17.131Z,0
2018-01-01T02:42:17.115Z,0
2018-01-01T02:43:16.821Z,0
2018-01-01T02:44:17.122Z,0
2018-01-01T02:45:17.049Z,0
2018-01-01T02:46:16.504Z,0
2018-01-01T02:47:16.740Z,0
2018-01-01T02:48:16.981Z,0
2018-01-01T02:49:16.446Z,0
2018-01-01T02:50:16.692Z,0
2018-01-01T02:51:16.136Z,0
2018-01-01T02:52:16.642Z,0
2018-01-01T02:53:16.895Z,0
2018-01-01T02:54:16.610Z,0
2018-01-01T02:55:16.850Z,0
2018-01-01T02:56:16.851Z,0
2018-01-01T02:57:16.823Z,0
2018-01-01T02:58:16.803Z,0
2018-01-01T02:59:16.245Z,0
2018-01-01T03:00:16.230Z,0
2018-01-01T03:01:16.206Z,0
2018-01-01T03:02:16.708Z,0
2018-01-01T03:03:16.699Z,0
2018-01-01T03:04:16.683Z,0
2018-01-01T03:05:16.669Z,0
2018-01-01T03:06:16.649Z,0
2018-01-01T03:07:16.616Z,0
2018-01-01T03:08:16.344Z,0
2018-01-01T03:09:16.330Z,0
2018-01-01T03:10:16.565Z,0
2018-01-01T03:11:16.538Z,0
2018-01-01T03:12:16.524Z,0
2018-01-01T03:13:16.505Z,0
2018-01-01T03:14:16.217Z,0
2018-01-01T03:15:15.946Z,0
2018-01-01T03:16:16.714Z,0
2018-01-01T03:17:16.483Z,0
2018-01-01T03:18:15.881Z,0
2018-01-01T03:19:15.871Z,0
2018-01-01T03:20:16.371Z,0
2018-01-01T03:21:16.353Z,0
2018-01-01T03:22:16.593Z,0
2018-01-01T03:23:15.784Z,0
2018-01-01T03:24:16.038Z,0
2018-01-01T03:25:16.018Z,0
2018-01-01T03:26:15.985Z,0
2018-01-01T03:27:16.238Z,0
2018-01-01T03:28:16.271Z,0
2018-01-01T03:29:15.934Z,0
2018-01-01T03:30:16.188Z,0
2018-01-01T03:31:16.163Z,0
2018-01-01T03:32:15.612Z,0
2018-01-01T03:33:16.388Z,0
2018-01-01T03:34:15.577Z,0
2018-01-01T03:35:16.352Z,0
2018-01-01T03:36:16.326Z,0
2018-01-01T03:37:15.252Z,0
2018-01-01T03:38:16.287Z,0
2018-01-01T03:39:16.013Z,0
2018-01-01T03:40:15.459Z,0
2018-01-01T03:41:15.969Z,0
2018-01-01T03:42:15.953Z,0
2018-01-01T03:43:16.202Z,0
2018-01-01T03:44:15.905Z,0
2018-01-01T03:45:15.364Z,0
2018-01-01T03:46:15.868Z,0
2018-01-01T03:47:15.844Z,0
2018-01-01T03:48:15.829Z,0
2018-01-01T03:49:15.032Z,0
2018-01-01T03:50:15.525Z,0
2018-01-01T03:51:16.044Z,0
2018-01-01T03:52:15.495Z,0
2018-01-01T03:53:15.206Z,0
2018-01-01T03:54:15.714Z,0
2018-01-01T03:55:15.426Z,0
2018-01-01T03:56:15.142Z,0
2018-01-01T03:57:15.657Z,0
2018-01-01T03:58:15.375Z,0
2018-01-01T03:59:15.083Z,0
2018-01-01T04:00:15.329Z,0
2018-01-01T04:01:15.570Z,0
2018-01-01T04:02:15.548Z,0
2018-01-01T04:03:15.272Z,0
2018-01-01T04:04:15.783Z,0
2018-01-01T04:05:15.500Z,0
2018-01-01T04:06:15.210Z,0
2018-01-01T04:07:14.936Z,0
2018-01-01T04:08:15.484Z,0
2018-01-01T04:09:14.894Z,0
2018-01-01T04:10:15.130Z,0
2018-01-01T04:11:15.112Z,0
2018-01-01T04:12:15.097Z,0
2018-01-01T04:13:15.348Z,0
2018-01-01T04:14:15.592Z,0
2018-01-01T04:15:15.304Z,0
2018-01-01T04:16:14.493Z,0
2018-01-01T04:17:15.000Z,0
2018-01-01T04:18:15.252Z,0
2018-01-01T04:19:14.958Z,0
2018-01-01T04:20:14.936Z,0
2018-01-01T04:21:15.326Z,0
2018-01-01T04:22:14.906Z,0
2018-01-01T04:23:15.194Z,0
2018-01-01T04:24:14.853Z,0
2018-01-01T04:25:15.371Z,0
2018-01-01T04:26:14.812Z,0
2018-01-01T04:27:14.798Z,0
2018-01-01T04:28:14.522Z,0
2018-01-01T04:29:15.027Z,0
2018-01-01T04:30:14.997Z,0
2018-01-01T04:31:14.457Z,0
2018-01-01T04:32:15.238Z,0
2018-01-01T04:33:14.683Z,0
2018-01-01T04:34:14.938Z,0
2018-01-01T04:35:14.898Z,0
2018-01-01T04:36:14.882Z,0
2018-01-01T04:37:14.867Z,0
2018-01-01T04:38:14.582Z,0
2018-01-01T04:39:14.824Z,0
2018-01-01T04:40:14.275Z,0
2018-01-01T04:41:14.797Z,0
2018-01-01T04:42:14.507Z,0
2018-01-01T04:43:14.504Z,0
2018-01-01T04:44:14.466Z,0
2018-01-01T04:45:14.453Z,0
2018-01-01T04:46:14.424Z,0
2018-01-01T04:47:14.403Z,0
2018-01-01T04:48:13.860Z,0
2018-01-01T04:49:14.100Z,0
2018-01-01T04:50:14.360Z,0
2018-01-01T04:51:14.900Z,0
2018-01-01T04:52:14.305Z,0
2018-01-01T04:53:14.023Z,0
2018-01-01T04:54:14.268Z,0
2018-01-01T04:55:14.769Z,0
2018-01-01T04:56:14.491Z,0
2018-01-01T04:57:14.146Z,0
2018-01-01T04:58:13.968Z,0
2018-01-01T04:59:13.638Z,0
2018-01-01T05:00:14.147Z,0
2018-01-01T05:01:14.392Z,0
2018-01-01T05:02:13.573Z,0
2018-01-01T05:03:14.351Z,0
2018-01-01T05:04:13.801Z,0
2018-01-01T05:05:14.058Z,0
2018-01-01T05:06:14.038Z,0
2018-01-01T05:07:14.011Z,0
2018-01-01T05:08:13.988Z,0
2018-01-01T05:09:13.974Z,0
2018-01-01T05:10:13.960Z,0
2018-01-01T05:11:14.465Z,0
2018-01-01T05:12:13.641Z,0
2018-01-01T05:13:13.895Z,0
2018-01-01T05:14:13.337Z,0
2018-01-01T05:15:13.583Z,0
2018-01-01T05:16:13.561Z,0
2018-01-01T05:17:14.329Z,0
2018-01-01T05:18:13.787Z,0
2018-01-01T05:19:14.081Z,0
2018-01-01T05:20:13.744Z,0
2018-01-01T05:21:14.257Z,0
2018-01-01T05:22:13.977Z,0
2018-01-01T05:23:13.431Z,0
2018-01-01T05:24:13.936Z,0
2018-01-01T05:25:13.124Z,0
2018-01-01T05:26:13.946Z,0
2018-01-01T05:27:13.352Z,0
2018-01-01T05:28:13.325Z,0
2018-01-01T05:29:13.309Z,0
2018-01-01T05:30:13.335Z,0
2018-01-01T05:31:13.536Z,0
2018-01-01T05:32:13.244Z,0
2018-01-01T05:33:14.020Z,0
2018-01-01T05:34:13.744Z,0
2018-01-01T05:35:13.714Z,0
2018-01-01T05:36:13.436Z,0
2018-01-01T05:37:13.416Z,0
2018-01-01T05:38:13.653Z,0
2018-01-01T05:39:13.642Z,0
2018-01-01T05:40:13.617Z,0
2018-01-01T05:41:13.337Z,0
2018-01-01T05:42:13.052Z,0
2018-01-01T05:43:13.568Z,0
2018-01-01T05:44:13.016Z,0
2018-01-01T05:45:13.510Z,0
2018-01-01T05:46:13.241Z,0
2018-01-01T05:47:13.210Z,0
2018-01-01T05:48:12.938Z,0
2018-01-01T05:49:12.912Z,0
2018-01-01T05:50:13.155Z,0
2018-01-01T05:51:12.878Z,0
2018-01-01T05:52:12.853Z,0
2018-01-01T05:53:12.568Z,0
2018-01-01T05:54:13.070Z,0
2018-01-01T05:55:12.787Z,0
2018-01-01T05:56:13.301Z,0
2018-01-01T05:57:13.012Z,0
2018-01-01T05:58:12.993Z,0
2018-01-01T05:59:12.714Z,0
2018-01-01T06:00:12.958Z,0
2018-01-01T06:01:12.941Z,0
2018-01-01T06:02:12.652Z,0
2018-01-01T06:03:13.422Z,0
2018-01-01T06:04:13.080Z,0
2018-01-01T06:05:13.117Z,0
2018-01-01T06:06:13.127Z,0
2018-01-01T06:07:12.823Z,0
2018-01-01T06:08:12.801Z,0
2018-01-01T06:09:12.251Z,0
2018-01-01T06:10:13.029Z,0
2018-01-01T06:11:12.949Z,0
2018-01-01T06:12:12.726Z,0
2018-01-01T06:13:12.965Z,0
2018-01-01T06:14:13.209Z,0
2018-01-01T06:15:13.197Z,0
2018-01-01T06:16:12.910Z,0
2018-01-01T06:17:12.885Z,0
2018-01-01T06:18:13.144Z,0
2018-01-01T06:19:12.607Z,0
2018-01-01T06:20:12.828Z,0
2018-01-01T06:21:13.470Z,0
2018-01-01T06:22:12.294Z,0
2018-01-01T06:23:12.496Z,0
2018-01-01T06:24:12.487Z,0
2018-01-01T06:25:12.465Z,0
2018-01-01T06:26:12.707Z,0
2018-01-01T06:27:12.160Z,0
2018-01-01T06:28:12.669Z,0
2018-01-01T06:29:11.875Z,0
2018-01-01T06:30:12.358Z,0
2018-01-01T06:31:12.642Z,0
2018-01-01T06:32:12.054Z,0
2018-01-01T06:33:12.065Z,0
2018-01-01T06:34:12.309Z,0
2018-01-01T06:35:11.997Z,0
2018-01-01T06:36:12.517Z,0
2018-01-01T06:37:12.489Z,0
2018-01-01T06:38:12.482Z,0
2018-01-01T06:39:11.925Z,0
2018-01-01T06:40:12.694Z,0
2018-01-01T06:41:11.893Z,0
2018-01-01T06:42:12.390Z,0
2018-01-01T06:43:12.364Z,0
2018-01-01T06:44:12.621Z,0
2018-01-01T06:45:12.073Z,0
2018-01-01T06:46:12.047Z,0
2018-01-01T06:47:12.030Z,0
2018-01-01T06:48:12.040Z,0
2018-01-01T06:49:12.254Z,0
2018-01-01T06:50:12.231Z,0
2018-01-01T06:51:11.949Z,0
2018-01-01T06:52:11.933Z,0
2018-01-01T06:53:11.654Z,0
2018-01-01T06:54:11.632Z,0
2018-01-01T06:55:11.869Z,0
2018-01-01T06:56:12.134Z,0
2018-01-01T06:57:12.093Z,0
2018-01-01T06:58:11.810Z,0
2018-01-01T06:59:11.791Z,0
2018-01-01T07:00:12.032Z,0
2018-01-01T07:01:11.755Z,0
2018-01-01T07:02:11.993Z,0
2018-01-01T07:03:11.974Z,0
2018-01-01T07:04:11.690Z,0
2018-01-01T07:05:11.705Z,0
2018-01-01T07:06:11.389Z,0
2018-01-01T07:07:11.640Z,0
2018-01-01T07:08:11.876Z,0
2018-01-01T07:09:11.863Z,0
2018-01-01T07:10:12.099Z,0
2018-01-01T07:11:11.825Z,0
2018-01-01T07:12:11.798Z,0
2018-01-01T07:13:11.778Z,0
2018-01-01T07:14:12.019Z,0
2018-01-01T07:15:11.476Z,0
2018-01-01T07:16:11.524Z,0
2018-01-01T07:17:11.439Z,0
2018-01-01T07:18:11.952Z,0
2018-01-01T07:19:11.930Z,0
2018-01-01T07:20:11.914Z,0
2018-01-01T07:21:11.892Z,0
2018-01-01T07:22:11.615Z,0
2018-01-01T07:23:11.856Z,0
2018-01-01T07:24:11.309Z,0
2018-01-01T07:25:11.544Z,0
2018-01-01T07:26:11.271Z,0
2018-01-01T07:27:11.512Z,0
2018-01-01T07:28:11.229Z,0
2018-01-01T07:29:10.712Z,0
2018-01-01T07:30:11.710Z,0
2018-01-01T07:31:11.692Z,0
2018-01-01T07:32:10.875Z,0
2018-01-01T07:33:11.130Z,0
2018-01-01T07:34:11.367Z,0
2018-01-01T07:35:11.350Z,0
2018-01-01T07:36:11.065Z,0
2018-01-01T07:37:11.305Z,0
2018-01-01T07:38:10.760Z,0
2018-01-01T07:39:11.624Z,0
2018-01-01T07:40:10.985Z,0
2018-01-01T07:41:10.698Z,0
2018-01-01T07:42:10.957Z,0
2018-01-01T07:43:10.670Z,5
2018-01-01T07:44:10.381Z,5
2018-01-01T07:45:10.619Z,5
2018-01-01T07:46:10.873Z,5
2018-01-01T07:47:10.845Z,5
2018-01-01T07:48:11.085Z,5
2018-01-01T07:49:11.069Z,5
2018-01-01T07:50:10.790Z,5
2018-01-01T07:51:10.503Z,5
2018-01-01T07:52:10.483Z,5
2018-01-01T07:53:10.986Z,5
2018-01-01T07:54:11.241Z,5
2018-01-01T07:55:10.686Z,10
2018-01-01T07:56:10.679Z,10
2018-01-01T07:57:10.651Z,10
2018-01-01T07:58:11.157Z,10
2018-01-01T07:59:10.608Z,10
2018-01-01T08:00:10.331Z,10
2018-01-01T08:01:10.840Z,10
2018-01-01T08:02:11.084Z,15
2018-01-01T08:03:10.530Z,15
2018-01-01T08:04:10.780Z,15
2018-01-01T08:05:10.497Z,15
2018-01-01T08:06:10.741Z,10
2018-01-01T08:07:10.190Z,15
2018-01-01T08:08:10.168Z,10
2018-01-01T08:09:10.681Z,10
2018-01-01T08:10:10.404Z,15
2018-01-01T08:11:10.160Z,15
2018-01-01T08:12:10.353Z,15
2018-01-01T08:13:10.337Z,15
2018-01-01T08:14:10.579Z,20
2018-01-01T08:15:10.291Z,20
2018-01-01T08:16:10.796Z,20
2018-01-01T08:17:10.522Z,25
2018-01-01T08:18:10.500Z,15
2018-01-01T08:19:10.215Z,15
2018-01-01T08:20:10.201Z,20
2018-01-01T08:21:10.172Z,15
2018-01-01T08:22:10.356Z,15
2018-01-01T08:23:10.162Z,20
2018-01-01T08:24:09.853Z,20
2018-01-01T08:25:10.096Z,20
2018-01-01T08:26:10.072Z,25
2018-01-01T08:27:10.320Z,25
2018-01-01T08:28:10.048Z,30
2018-01-01T08:29:10.024Z,35
2018-01-01T08:30:09.739Z,35
2018-01-01T08:31:10.508Z,30
2018-01-01T08:32:10.234Z,35
2018-01-01T08:33:09.688Z,40
2018-01-01T08:34:09.658Z,40
2018-01-01T08:35:09.907Z,30
2018-01-01T08:36:09.887Z,35
2018-01-01T08:37:10.141Z,35
2018-01-01T08:38:10.108Z,40
2018-01-01T08:39:09.823Z,35
2018-01-01T08:40:09.809Z,40
2018-01-01T08:41:09.525Z,45
2018-01-01T08:42:09.497Z,50
2018-01-01T08:43:10.017Z,50
2018-01-01T08:44:09.725Z,50
2018-01-01T08:45:09.706Z,40
2018-01-01T08:46:09.686Z,35
2018-01-01T08:47:09.938Z,30
2018-01-01T08:48:09.915Z,30
2018-01-01T08:49:09.634Z,35
2018-01-01T08:50:09.612Z,30
2018-01-01T08:51:09.327Z,35
2018-01-01T08:52:09.831Z,40
2018-01-01T08:53:09.851Z,40
2018-01-01T08:54:09.802Z,50
2018-01-01T08:55:09.252Z,50
2018-01-01T08:56:09.766Z,50
2018-01-01T08:57:10.012Z,50
2018-01-01T08:58:08.934Z,50
2018-01-01T08:59:09.187Z,45
2018-01-01T09:00:09.957Z,40
2018-01-01T09:01:09.929Z,35
2018-01-01T09:02:09.905Z,35
2018-01-01T09:03:09.375Z,35
2018-01-01T09:04:09.863Z,35
2018-01-01T09:05:09.848Z,35
2018-01-01T09:06:09.310Z,40
2018-01-01T09:07:09.548Z,30
2018-01-01T09:08:09.002Z,35
2018-01-01T09:09:09.238Z,35
2018-01-01T09:10:09.752Z,30
2018-01-01T09:11:09.204Z,35
2018-01-01T09:12:09.199Z,40
2018-01-01T09:13:09.422Z,40
2018-01-01T09:14:09.705Z,45
2018-01-01T09:15:09.281Z,35
2018-01-01T09:16:08.853Z,30
2018-01-01T09:17:09.357Z,35
2018-01-01T09:18:09.082Z,40
2018-01-01T09:19:09.322Z,35
2018-01-01T09:20:09.298Z,35
2018-01-01T09:21:09.020Z,40
2018-01-01T09:22:08.990Z,35
2018-01-01T09:23:08.446Z,35
2018-01-01T09:24:09.489Z,35
2018-01-01T09:25:08.672Z,35
2018-01-01T09:26:09.456Z,40
2018-01-01T09:27:09.163Z,35
2018-01-01T09:28:08.613Z,40
2018-01-01T09:29:09.138Z,45
2018-01-01T09:30:08.581Z,45
2018-01-01T09:31:09.077Z,45
2018-01-01T09:32:09.064Z,50
2018-01-01T09:33:09.042Z,55
2018-01-01T09:34:09.286Z,55
2018-01-01T09:35:08.734Z,60
2018-01-01T09:36:08.989Z,55
2018-01-01T09:37:08.987Z,45
2018-01-01T09:38:08.686Z,45
2018-01-01T09:39:09.199Z,40
2018-01-01T09:40:08.913Z,55
2018-01-01T09:41:08.937Z,60
2018-01-01T09:42:08.606Z,75
2018-01-01T09:43:08.848Z,65
2018-01-01T09:44:08.361Z,80
2018-01-01T09:45:08.554Z,95
2018-01-01T09:46:08.793Z,85
2018-01-01T09:47:08.778Z,85
2018-01-01T09:48:08.756Z,105
2018-01-01T09:49:07.997Z,120
2018-01-01T09:50:08.183Z,130
2018-01-01T09:51:08.430Z,170
2018-01-01T09:52:08.149Z,175
2018-01-01T09:53:08.655Z,160
2018-01-01T09:54:08.374Z,150
2018-01-01T09:55:08.353Z,155
2018-01-01T09:56:08.601Z,155
2018-01-01T09:57:08.315Z,155
2018-01-01T09:58:08.307Z,175
2018-01-01T09:59:08.291Z,200
2018-01-01T10:00:08.335Z,190
2018-01-01T10:01:08.763Z,270
2018-01-01T10:02:08.227Z,365
2018-01-01T10:03:08.465Z,285
2018-01-01T10:04:08.247Z,280
2018-01-01T10:05:08.219Z,140
2018-01-01T10:06:08.150Z,90
2018-01-01T10:07:08.133Z,100
2018-01-01T10:08:08.379Z,95
2018-01-01T10:09:07.573Z,90
2018-01-01T10:10:08.347Z,55
2018-01-01T10:11:07.799Z,65
2018-01-01T10:12:08.306Z,70
2018-01-01T10:13:08.019Z,90
2018-01-01T10:14:08.007Z,100
2018-01-01T10:15:08.244Z,65
2018-01-01T10:16:08.502Z,50
2018-01-01T10:17:07.952Z,60
2018-01-01T10:18:07.934Z,55
2018-01-01T10:19:07.658Z,60
2018-01-01T10:20:07.903Z,55
2018-01-01T10:21:07.618Z,45
2018-01-01T10:22:07.802Z,50
2018-01-01T10:23:08.118Z,35
2018-01-01T10:24:08.088Z,35
2018-01-01T10:25:07.538Z,30
2018-01-01T10:26:08.053Z,30
2018-01-01T10:27:07.764Z,35
2018-01-01T10:28:07.756Z,40
2018-01-01T10:29:07.733Z,40
2018-01-01T10:30:07.456Z,40
2018-01-01T10:31:07.692Z,55
2018-01-01T10:32:07.988Z,45
2018-01-01T10:33:07.656Z,45
2018-01-01T10:34:07.642Z,35
2018-01-01T10:35:07.617Z,35
2018-01-01T10:36:07.611Z,40
2018-01-01T10:37:07.584Z,50
2018-01-01T10:38:07.830Z,55
2018-01-01T10:39:07.804Z,55
2018-01-01T10:40:07.262Z,70
2018-01-01T10:41:07.497Z,90
2018-01-01T10:42:07.752Z,90
2018-01-01T10:43:06.938Z,70
2018-01-01T10:44:07.188Z,50
2018-01-01T10:45:07.183Z,55
2018-01-01T10:46:07.149Z,55
2018-01-01T10:47:07.654Z,60
2018-01-01T10:48:07.893Z,45
2018-01-01T10:49:07.966Z,40
2018-01-01T10:50:07.337Z,45
2018-01-01T10:51:07.577Z,45
2018-01-01T10:52:07.293Z,40
2018-01-01T10:53:07.550Z,35
2018-01-01T10:54:06.998Z,45
2018-01-01T10:55:06.977Z,30
2018-01-01T10:56:06.957Z,35
2018-01-01T10:57:07.736Z,50
2018-01-01T10:58:07.187Z,50
2018-01-01T10:59:07.425Z,50
2018-01-01T11:00:07.137Z,70
2018-01-01T11:01:06.866Z,85
2018-01-01T11:02:07.362Z,90
2018-01-01T11:03:07.084Z,95
2018-01-01T11:04:07.325Z,90
2018-01-01T11:05:07.334Z,90
2018-01-01T11:06:07.021Z,80
2018-01-01T11:07:07.007Z,70
2018-01-01T11:08:06.991Z,80
2018-01-01T11:09:06.717Z,105
2018-01-01T11:10:07.216Z,130
2018-01-01T11:11:07.602Z,115
2018-01-01T11:12:06.640Z,90
2018-01-01T11:13:06.626Z,95
2018-01-01T11:14:06.607Z,95
2018-01-01T11:15:06.855Z,80
2018-01-01T11:16:07.153Z,85
2018-01-01T11:17:06.550Z,75
2018-01-01T11:18:06.792Z,65
2018-01-01T11:19:07.035Z,110
2018-01-01T11:20:07.324Z,130
2018-01-01T11:21:06.526Z,105
2018-01-01T11:22:07.252Z,110
2018-01-01T11:23:06.963Z,95
2018-01-01T11:24:07.214Z,115
2018-01-01T11:25:06.924Z,110
2018-01-01T11:26:06.906Z,120
2018-01-01T11:27:06.618Z,125
2018-01-01T11:28:06.347Z,100
2018-01-01T11:29:06.581Z,120
2018-01-01T11:30:06.043Z,115
2018-01-01T11:31:06.551Z,105
2018-01-01T11:32:06.527Z,105
2018-01-01T11:33:06.512Z,85
2018-01-01T11:34:06.750Z,65
2018-01-01T11:35:05.951Z,85
2018-01-01T11:36:06.463Z,145
2018-01-01T11:37:06.444Z,145
2018-01-01T11:38:06.687Z,140
2018-01-01T11:39:05.870Z,95
2018-01-01T11:40:06.655Z,95
2018-01-01T11:41:06.358Z,100
2018-01-01T11:42:06.620Z,100
2018-01-01T11:43:06.854Z,115
2018-01-01T11:44:06.576Z,125
2018-01-01T11:45:06.561Z,105
2018-01-01T11:46:06.011Z,145
2018-01-01T11:47:06.245Z,170
2018-01-01T11:48:06.496Z,155
2018-01-01T11:49:06.474Z,165
2018-01-01T11:50:06.502Z,205
2018-01-01T11:51:05.912Z,200
2018-01-01T11:52:06.168Z,210
2018-01-01T11:53:06.406Z,170
2018-01-01T11:54:06.117Z,205
2018-01-01T11:55:05.849Z,220
2018-01-01T11:56:05.875Z,190
2018-01-01T11:57:06.083Z,200
2018-01-01T11:58:05.522Z,170
2018-01-01T11:59:06.558Z,135
2018-01-01T12:00:06.286Z,140
2018-01-01T12:01:05.995Z,170
2018-01-01T12:02:06.243Z,170
2018-01-01T12:03:05.703Z,185
2018-01-01T12:04:05.677Z,170
2018-01-01T12:05:06.194Z,180
2018-01-01T12:06:05.902Z,155
2018-01-01T12:07:05.886Z,140
2018-01-01T12:08:05.868Z,160
2018-01-01T12:09:05.868Z,135
2018-01-01T12:10:06.107Z,135
2018-01-01T12:11:06.078Z,150
2018-01-01T12:12:06.065Z,155
2018-01-01T12:13:05.247Z,180
2018-01-01T12:14:05.761Z,170
2018-01-01T12:15:05.752Z,180
2018-01-01T12:16:05.730Z,200
2018-01-01T12:17:05.972Z,160
2018-01-01T12:18:05.957Z,135
2018-01-01T12:19:05.941Z,180
2018-01-01T12:20:05.917Z,205
2018-01-01T12:21:05.893Z,245
2018-01-01T12:22:05.595Z,285
2018-01-01T12:23:05.868Z,255
2018-01-01T12:24:05.846Z,155
2018-01-01T12:25:05.306Z,150
2018-01-01T12:26:06.118Z,160
2018-01-01T12:27:05.807Z,165
2018-01-01T12:28:05.515Z,155
2018-01-01T12:29:05.768Z,170
2018-01-01T12:30:05.213Z,165
2018-01-01T12:31:05.204Z,155
2018-01-01T12:32:05.715Z,200
2018-01-01T12:33:05.695Z,190
2018-01-01T12:34:05.415Z,230
2018-01-01T12:35:04.883Z,115
2018-01-01T12:36:05.907Z,120
2018-01-01T12:37:05.104Z,140
2018-01-01T12:38:05.341Z,160
2018-01-01T12:39:05.853Z,200
2018-01-01T12:40:05.311Z,140
2018-01-01T12:41:05.293Z,125
2018-01-01T12:42:05.484Z,255
2018-01-01T12:43:05.528Z,255
2018-01-01T12:44:05.449Z,315
2018-01-01T12:45:05.224Z,150
2018-01-01T12:46:04.956Z,140
2018-01-01T12:47:05.480Z,135
2018-01-01T12:48:04.955Z,160
2018-01-01T12:49:05.422Z,165
2018-01-01T12:50:05.415Z,160
2018-01-01T12:51:05.128Z,170
2018-01-01T12:52:04.851Z,205
2018-01-01T12:53:05.357Z,185
2018-01-01T12:54:05.339Z,125
2018-01-01T12:55:04.806Z,140
2018-01-01T12:56:05.299Z,130
2018-01-01T12:57:05.019Z,105
2018-01-01T12:58:05.348Z,80
2018-01-01T12:59:04.726Z,60
2018-01-01T13:00:04.720Z,45
2018-01-01T13:01:05.462Z,40
2018-01-01T13:02:04.961Z,40
2018-01-01T13:03:04.921Z,35
2018-01-01T13:04:05.445Z,35
2018-01-01T13:05:05.424Z,35
2018-01-01T13:06:04.607Z,40
2018-01-01T13:07:04.869Z,50
2018-01-01T13:08:04.841Z,50
2018-01-01T13:09:05.091Z,45
2018-01-01T13:10:04.873Z,55
2018-01-01T13:11:04.522Z,50
2018-01-01T13:12:05.029Z,55
2018-01-01T13:13:04.758Z,55
2018-01-01T13:14:04.734Z,50
2018-01-01T13:15:04.728Z,40
2018-01-01T13:16:04.745Z,30
2018-01-01T13:17:04.683Z,25
2018-01-01T13:18:04.664Z,25
2018-01-01T13:19:04.923Z,30
2018-01-01T13:20:04.648Z,30
2018-01-01T13:21:04.345Z,25
2018-01-01T13:22:04.869Z,30
2018-01-01T13:23:04.570Z,35
2018-01-01T13:24:04.824Z,45
2018-01-01T13:25:04.537Z,55
2018-01-01T13:26:04.252Z,50
2018-01-01T13:27:04.506Z,45
2018-01-01T13:28:04.532Z,45
2018-01-01T13:29:05.011Z,45
2018-01-01T13:30:04.452Z,50
2018-01-01T13:31:04.701Z,45
2018-01-01T13:32:04.153Z,45
2018-01-01T13:33:04.394Z,30
2018-01-01T13:34:04.107Z,25
2018-01-01T13:35:04.619Z,20
2018-01-01T13:36:04.610Z,20
2018-01-01T13:37:04.060Z,20
2018-01-01T13:38:04.313Z,20
2018-01-01T13:39:04.296Z,20
2018-01-01T13:40:04.798Z,25
2018-01-01T13:41:03.976Z,35
2018-01-01T13:42:04.234Z,40
2018-01-01T13:43:03.683Z,40
2018-01-01T13:44:03.940Z,40
2018-01-01T13:45:04.702Z,35
2018-01-01T13:46:04.164Z,40
2018-01-01T13:47:04.410Z,50
2018-01-01T13:48:04.145Z,65
2018-01-01T13:49:04.378Z,75
2018-01-01T13:50:04.627Z,95
2018-01-01T13:51:04.589Z,105
2018-01-01T13:52:04.368Z,110
2018-01-01T13:53:04.247Z,105
2018-01-01T13:54:04.488Z,95
2018-01-01T13:55:04.008Z,85
2018-01-01T13:56:04.256Z,90
2018-01-01T13:57:03.698Z,95
2018-01-01T13:58:03.948Z,90
2018-01-01T13:59:03.664Z,85
2018-01-01T14:00:03.912Z,85
2018-01-01T14:01:04.174Z,80
2018-01-01T14:02:03.872Z,70
2018-01-01T14:03:03.863Z,70
2018-01-01T14:04:03.833Z,65
2018-01-01T14:05:03.812Z,55
2018-01-01T14:06:03.805Z,50
2018-01-01T14:07:03.991Z,50
2018-01-01T14:08:04.042Z,50
2018-01-01T14:09:03.842Z,60
2018-01-01T14:10:04.002Z,65
2018-01-01T14:11:04.010Z,60
2018-01-01T14:12:03.692Z,55
2018-01-01T14:13:03.410Z,50
2018-01-01T14:14:03.407Z,50
2018-01-01T14:15:03.894Z,50
2018-01-01T14:16:03.616Z,45
2018-01-01T14:17:03.857Z,45
2018-01-01T14:18:03.314Z,45
2018-01-01T14:19:03.556Z,45
2018-01-01T14:20:03.802Z,40
2018-01-01T14:21:03.538Z,40
2018-01-01T14:22:03.711Z,35
2018-01-01T14:23:03.494Z,35
2018-01-01T14:24:04.167Z,35
2018-01-01T14:25:03.129Z,35
2018-01-01T14:26:03.186Z,35
2018-01-01T14:27:03.153Z,40
2018-01-01T14:28:03.412Z,40